sensor_id;sensor_type;location;lat;lon;timestamp;P1;durP1;ratioP1;P2;durP2;ratioP2
52318;SDS011;38258;51.148;14.068;2023-07-02T00:01:18;4.47;;;3.22;;
52318;SDS011;38258;51.148;14.068;2023-07-02T00:03:44;5.15;;;3.22;;
52318;SDS011;38258;51.148;14.068;2023-07-02T00:06:11;4.00;;;3.20;;
52318;SDS011;38258;51.148;14.068;2023-07-02T00:08:37;6.18;;;3.25;;
52318;SDS011;38258;51.148;14.068;2023-07-02T00:11:07;4.95;;;3.30;;
52318;SDS011;38258;51.148;14.068;2023-07-02T00:13:37;5.88;;;3.28;;
52318;SDS011;38258;51.148;14.068;2023-07-02T00:16:04;5.20;;;3.33;;
52318;SDS011;38258;51.148;14.068;2023-07-02T00:18:31;7.90;;;3.45;;
52318;SDS011;38258;51.148;14.068;2023-07-02T00:20:59;3.53;;;3.20;;
52318;SDS011;38258;51.148;14.068;2023-07-02T00:23:27;3.88;;;3.00;;
52318;SDS011;38258;51.148;14.068;2023-07-02T00:25:54;4.68;;;3.42;;
52318;SDS011;38258;51.148;14.068;2023-07-02T00:28:22;4.40;;;2.95;;
52318;SDS011;38258;51.148;14.068;2023-07-02T00:30:49;3.50;;;3.05;;
52318;SDS011;38258;51.148;14.068;2023-07-02T00:33:16;4.10;;;3.20;;
52318;SDS011;38258;51.148;14.068;2023-07-02T00:35:43;5.25;;;3.35;;
52318;SDS011;38258;51.148;14.068;2023-07-02T00:38:10;4.90;;;3.85;;
52318;SDS011;38258;51.148;14.068;2023-07-02T00:40:36;4.60;;;3.20;;
52318;SDS011;38258;51.148;14.068;2023-07-02T00:43:03;4.07;;;3.05;;
52318;SDS011;38258;51.148;14.068;2023-07-02T00:45:31;4.28;;;3.13;;
52318;SDS011;38258;51.148;14.068;2023-07-02T00:47:58;3.67;;;3.00;;
52318;SDS011;38258;51.148;14.068;2023-07-02T00:50:25;4.50;;;3.30;;
52318;SDS011;38258;51.148;14.068;2023-07-02T00:52:52;5.15;;;3.50;;
52318;SDS011;38258;51.148;14.068;2023-07-02T00:55:20;4.53;;;2.80;;
52318;SDS011;38258;51.148;14.068;2023-07-02T00:57:47;4.43;;;3.72;;
52318;SDS011;38258;51.148;14.068;2023-07-02T01:00:13;5.35;;;3.60;;
52318;SDS011;38258;51.148;14.068;2023-07-02T01:02:42;3.92;;;2.80;;
52318;SDS011;38258;51.148;14.068;2023-07-02T01:05:13;4.10;;;2.72;;
52318;SDS011;38258;51.148;14.068;2023-07-02T01:07:41;5.25;;;3.10;;
52318;SDS011;38258;51.148;14.068;2023-07-02T01:10:08;4.18;;;3.28;;
52318;SDS011;38258;51.148;14.068;2023-07-02T01:12:35;5.10;;;3.35;;
52318;SDS011;38258;51.148;14.068;2023-07-02T01:15:04;3.72;;;3.00;;
52318;SDS011;38258;51.148;14.068;2023-07-02T01:17:32;4.57;;;3.05;;
52318;SDS011;38258;51.148;14.068;2023-07-02T01:20:08;3.85;;;2.42;;
52318;SDS011;38258;51.148;14.068;2023-07-02T01:22:36;2.92;;;2.45;;
52318;SDS011;38258;51.148;14.068;2023-07-02T01:25:04;4.10;;;2.67;;
52318;SDS011;38258;51.148;14.068;2023-07-02T01:27:35;3.83;;;2.80;;
52318;SDS011;38258;51.148;14.068;2023-07-02T01:30:02;4.22;;;2.88;;
52318;SDS011;38258;51.148;14.068;2023-07-02T01:32:29;3.08;;;2.40;;
52318;SDS011;38258;51.148;14.068;2023-07-02T01:34:56;3.10;;;2.60;;
52318;SDS011;38258;51.148;14.068;2023-07-02T01:37:25;3.55;;;2.72;;
52318;SDS011;38258;51.148;14.068;2023-07-02T01:39:52;3.58;;;2.40;;
52318;SDS011;38258;51.148;14.068;2023-07-02T01:42:19;3.53;;;2.58;;
52318;SDS011;38258;51.148;14.068;2023-07-02T01:44:46;3.88;;;2.78;;
52318;SDS011;38258;51.148;14.068;2023-07-02T01:47:14;3.60;;;2.65;;
52318;SDS011;38258;51.148;14.068;2023-07-02T01:49:42;3.22;;;2.70;;
52318;SDS011;38258;51.148;14.068;2023-07-02T01:52:08;4.53;;;2.90;;
52318;SDS011;38258;51.148;14.068;2023-07-02T01:54:36;4.82;;;2.65;;
52318;SDS011;38258;51.148;14.068;2023-07-02T01:57:03;3.92;;;2.80;;
52318;SDS011;38258;51.148;14.068;2023-07-02T01:59:30;4.05;;;2.55;;
52318;SDS011;38258;51.148;14.068;2023-07-02T02:01:57;3.70;;;2.60;;
52318;SDS011;38258;51.148;14.068;2023-07-02T02:04:24;5.13;;;2.88;;
52318;SDS011;38258;51.148;14.068;2023-07-02T02:06:51;4.68;;;2.60;;
52318;SDS011;38258;51.148;14.068;2023-07-02T02:09:18;3.80;;;2.78;;
52318;SDS011;38258;51.148;14.068;2023-07-02T02:11:47;3.78;;;2.75;;
52318;SDS011;38258;51.148;14.068;2023-07-02T02:14:15;3.13;;;2.50;;
52318;SDS011;38258;51.148;14.068;2023-07-02T02:16:42;3.00;;;2.47;;
52318;SDS011;38258;51.148;14.068;2023-07-02T02:19:10;3.55;;;2.75;;
52318;SDS011;38258;51.148;14.068;2023-07-02T02:21:37;4.00;;;2.60;;
52318;SDS011;38258;51.148;14.068;2023-07-02T02:24:05;2.88;;;2.38;;
52318;SDS011;38258;51.148;14.068;2023-07-02T02:26:32;4.07;;;2.90;;
52318;SDS011;38258;51.148;14.068;2023-07-02T02:29:00;3.47;;;2.47;;
52318;SDS011;38258;51.148;14.068;2023-07-02T02:31:27;3.90;;;3.05;;
52318;SDS011;38258;51.148;14.068;2023-07-02T02:33:55;4.28;;;2.40;;
52318;SDS011;38258;51.148;14.068;2023-07-02T02:36:22;3.95;;;2.60;;
52318;SDS011;38258;51.148;14.068;2023-07-02T02:38:48;4.35;;;2.90;;
52318;SDS011;38258;51.148;14.068;2023-07-02T02:41:16;3.15;;;2.47;;
52318;SDS011;38258;51.148;14.068;2023-07-02T02:43:47;3.50;;;2.63;;
52318;SDS011;38258;51.148;14.068;2023-07-02T02:46:20;4.68;;;2.88;;
52318;SDS011;38258;51.148;14.068;2023-07-02T02:48:48;3.35;;;2.60;;
52318;SDS011;38258;51.148;14.068;2023-07-02T02:51:14;2.92;;;2.60;;
52318;SDS011;38258;51.148;14.068;2023-07-02T02:53:41;3.45;;;2.67;;
52318;SDS011;38258;51.148;14.068;2023-07-02T02:56:08;3.58;;;2.50;;
52318;SDS011;38258;51.148;14.068;2023-07-02T02:58:34;4.13;;;2.90;;
52318;SDS011;38258;51.148;14.068;2023-07-02T03:01:01;3.40;;;2.60;;
52318;SDS011;38258;51.148;14.068;2023-07-02T03:03:30;3.50;;;2.80;;
52318;SDS011;38258;51.148;14.068;2023-07-02T03:05:59;3.78;;;2.58;;
52318;SDS011;38258;51.148;14.068;2023-07-02T03:08:26;4.63;;;2.63;;
52318;SDS011;38258;51.148;14.068;2023-07-02T03:10:53;4.10;;;2.92;;
52318;SDS011;38258;51.148;14.068;2023-07-02T03:13:19;4.22;;;2.63;;
52318;SDS011;38258;51.148;14.068;2023-07-02T03:15:46;4.47;;;2.88;;
52318;SDS011;38258;51.148;14.068;2023-07-02T03:18:13;3.67;;;2.70;;
52318;SDS011;38258;51.148;14.068;2023-07-02T03:20:41;3.08;;;2.50;;
52318;SDS011;38258;51.148;14.068;2023-07-02T03:23:07;3.88;;;2.80;;
52318;SDS011;38258;51.148;14.068;2023-07-02T03:25:34;4.40;;;2.70;;
52318;SDS011;38258;51.148;14.068;2023-07-02T03:28:01;3.20;;;2.72;;
52318;SDS011;38258;51.148;14.068;2023-07-02T03:30:27;3.33;;;2.63;;
52318;SDS011;38258;51.148;14.068;2023-07-02T03:32:54;4.35;;;2.97;;
52318;SDS011;38258;51.148;14.068;2023-07-02T03:35:21;3.58;;;3.05;;
52318;SDS011;38258;51.148;14.068;2023-07-02T03:37:49;4.18;;;2.80;;
52318;SDS011;38258;51.148;14.068;2023-07-02T03:40:15;3.30;;;2.90;;
52318;SDS011;38258;51.148;14.068;2023-07-02T03:42:43;4.13;;;2.70;;
52318;SDS011;38258;51.148;14.068;2023-07-02T03:45:09;4.40;;;2.92;;
52318;SDS011;38258;51.148;14.068;2023-07-02T03:47:36;3.40;;;2.90;;
52318;SDS011;38258;51.148;14.068;2023-07-02T03:50:03;4.55;;;2.70;;
52318;SDS011;38258;51.148;14.068;2023-07-02T03:52:30;4.13;;;3.13;;
52318;SDS011;38258;51.148;14.068;2023-07-02T03:54:58;4.13;;;2.55;;
52318;SDS011;38258;51.148;14.068;2023-07-02T03:57:25;4.35;;;2.67;;
52318;SDS011;38258;51.148;14.068;2023-07-02T03:59:54;4.78;;;2.95;;
52318;SDS011;38258;51.148;14.068;2023-07-02T04:02:22;3.50;;;2.90;;
52318;SDS011;38258;51.148;14.068;2023-07-02T04:04:49;4.07;;;2.92;;
52318;SDS011;38258;51.148;14.068;2023-07-02T04:07:15;5.72;;;2.83;;
52318;SDS011;38258;51.148;14.068;2023-07-02T04:09:42;3.83;;;2.90;;
52318;SDS011;38258;51.148;14.068;2023-07-02T04:12:10;3.75;;;2.83;;
52318;SDS011;38258;51.148;14.068;2023-07-02T04:14:37;3.30;;;2.83;;
52318;SDS011;38258;51.148;14.068;2023-07-02T04:17:04;3.08;;;2.75;;
52318;SDS011;38258;51.148;14.068;2023-07-02T04:19:31;3.70;;;3.00;;
52318;SDS011;38258;51.148;14.068;2023-07-02T04:21:57;3.80;;;2.97;;
52318;SDS011;38258;51.148;14.068;2023-07-02T04:24:24;4.10;;;2.90;;
52318;SDS011;38258;51.148;14.068;2023-07-02T04:26:51;3.53;;;2.88;;
52318;SDS011;38258;51.148;14.068;2023-07-02T04:29:20;4.65;;;3.40;;
52318;SDS011;38258;51.148;14.068;2023-07-02T04:31:46;3.83;;;3.22;;
52318;SDS011;38258;51.148;14.068;2023-07-02T04:34:13;3.42;;;3.00;;
52318;SDS011;38258;51.148;14.068;2023-07-02T04:36:40;3.83;;;3.05;;
52318;SDS011;38258;51.148;14.068;2023-07-02T04:39:08;3.92;;;3.53;;
52318;SDS011;38258;51.148;14.068;2023-07-02T04:41:35;5.07;;;3.20;;
52318;SDS011;38258;51.148;14.068;2023-07-02T04:44:02;4.32;;;3.22;;
52318;SDS011;38258;51.148;14.068;2023-07-02T04:46:31;5.05;;;3.17;;
52318;SDS011;38258;51.148;14.068;2023-07-02T04:48:57;6.10;;;3.25;;
52318;SDS011;38258;51.148;14.068;2023-07-02T04:51:24;3.85;;;3.45;;
52318;SDS011;38258;51.148;14.068;2023-07-02T04:53:51;5.15;;;3.45;;
52318;SDS011;38258;51.148;14.068;2023-07-02T04:56:18;4.63;;;3.60;;
52318;SDS011;38258;51.148;14.068;2023-07-02T04:58:44;4.80;;;3.38;;
52318;SDS011;38258;51.148;14.068;2023-07-02T05:01:11;4.72;;;3.75;;
52318;SDS011;38258;51.148;14.068;2023-07-02T05:03:39;5.03;;;3.70;;
52318;SDS011;38258;51.148;14.068;2023-07-02T05:06:06;4.88;;;3.38;;
52318;SDS011;38258;51.148;14.068;2023-07-02T05:08:32;6.03;;;4.00;;
52318;SDS011;38258;51.148;14.068;2023-07-02T05:10:59;5.43;;;3.60;;
52318;SDS011;38258;51.148;14.068;2023-07-02T05:13:26;4.60;;;3.70;;
52318;SDS011;38258;51.148;14.068;2023-07-02T05:15:53;5.78;;;3.78;;
52318;SDS011;38258;51.148;14.068;2023-07-02T05:18:19;5.82;;;4.13;;
52318;SDS011;38258;51.148;14.068;2023-07-02T05:20:47;4.82;;;3.70;;
52318;SDS011;38258;51.148;14.068;2023-07-02T05:23:14;6.47;;;4.22;;
52318;SDS011;38258;51.148;14.068;2023-07-02T05:25:41;5.38;;;3.90;;
52318;SDS011;38258;51.148;14.068;2023-07-02T05:28:07;5.30;;;4.30;;
52318;SDS011;38258;51.148;14.068;2023-07-02T05:30:34;5.90;;;4.30;;
52318;SDS011;38258;51.148;14.068;2023-07-02T05:33:00;6.22;;;4.28;;
52318;SDS011;38258;51.148;14.068;2023-07-02T05:35:27;5.68;;;4.20;;
52318;SDS011;38258;51.148;14.068;2023-07-02T05:37:55;5.63;;;4.30;;
52318;SDS011;38258;51.148;14.068;2023-07-02T05:40:22;5.82;;;4.00;;
52318;SDS011;38258;51.148;14.068;2023-07-02T05:42:48;5.63;;;4.30;;
52318;SDS011;38258;51.148;14.068;2023-07-02T05:45:15;4.72;;;3.85;;
52318;SDS011;38258;51.148;14.068;2023-07-02T05:47:42;6.38;;;4.38;;
52318;SDS011;38258;51.148;14.068;2023-07-02T05:50:09;6.30;;;4.25;;
52318;SDS011;38258;51.148;14.068;2023-07-02T05:52:35;5.70;;;4.60;;
52318;SDS011;38258;51.148;14.068;2023-07-02T05:55:04;5.78;;;4.70;;
52318;SDS011;38258;51.148;14.068;2023-07-02T05:57:31;5.55;;;4.68;;
52318;SDS011;38258;51.148;14.068;2023-07-02T05:59:58;5.85;;;4.80;;
52318;SDS011;38258;51.148;14.068;2023-07-02T06:02:24;5.88;;;4.32;;
52318;SDS011;38258;51.148;14.068;2023-07-02T06:04:51;5.35;;;4.35;;
52318;SDS011;38258;51.148;14.068;2023-07-02T06:07:18;8.70;;;4.80;;
52318;SDS011;38258;51.148;14.068;2023-07-02T06:09:44;6.60;;;4.70;;
52318;SDS011;38258;51.148;14.068;2023-07-02T06:12:13;7.32;;;4.97;;
52318;SDS011;38258;51.148;14.068;2023-07-02T06:14:46;7.40;;;4.80;;
52318;SDS011;38258;51.148;14.068;2023-07-02T06:17:29;6.93;;;4.88;;
52318;SDS011;38258;51.148;14.068;2023-07-02T06:20:01;5.40;;;4.75;;
52318;SDS011;38258;51.148;14.068;2023-07-02T06:22:35;4.68;;;4.10;;
52318;SDS011;38258;51.148;14.068;2023-07-02T06:25:02;5.75;;;4.47;;
52318;SDS011;38258;51.148;14.068;2023-07-02T06:27:30;7.00;;;4.53;;
52318;SDS011;38258;51.148;14.068;2023-07-02T06:29:57;7.00;;;4.47;;
52318;SDS011;38258;51.148;14.068;2023-07-02T06:32:24;5.35;;;4.47;;
52318;SDS011;38258;51.148;14.068;2023-07-02T06:34:50;5.38;;;4.35;;
52318;SDS011;38258;51.148;14.068;2023-07-02T06:37:17;6.57;;;4.75;;
52318;SDS011;38258;51.148;14.068;2023-07-02T06:39:44;6.30;;;4.53;;
52318;SDS011;38258;51.148;14.068;2023-07-02T06:42:10;5.15;;;4.35;;
52318;SDS011;38258;51.148;14.068;2023-07-02T06:44:40;5.15;;;4.20;;
52318;SDS011;38258;51.148;14.068;2023-07-02T06:47:07;6.45;;;4.00;;
52318;SDS011;38258;51.148;14.068;2023-07-02T06:49:34;5.28;;;3.72;;
52318;SDS011;38258;51.148;14.068;2023-07-02T06:52:01;7.13;;;4.05;;
52318;SDS011;38258;51.148;14.068;2023-07-02T06:54:27;5.97;;;3.92;;
52318;SDS011;38258;51.148;14.068;2023-07-02T06:56:54;6.38;;;3.95;;
52318;SDS011;38258;51.148;14.068;2023-07-02T06:59:21;6.18;;;3.90;;
52318;SDS011;38258;51.148;14.068;2023-07-02T07:01:50;5.72;;;3.70;;
52318;SDS011;38258;51.148;14.068;2023-07-02T07:04:16;4.40;;;3.67;;
52318;SDS011;38258;51.148;14.068;2023-07-02T07:06:43;4.72;;;3.63;;
52318;SDS011;38258;51.148;14.068;2023-07-02T07:09:10;6.18;;;3.90;;
52318;SDS011;38258;51.148;14.068;2023-07-02T07:11:36;6.43;;;4.25;;
52318;SDS011;38258;51.148;14.068;2023-07-02T07:14:03;4.72;;;3.88;;
52318;SDS011;38258;51.148;14.068;2023-07-02T07:16:30;4.25;;;3.75;;
52318;SDS011;38258;51.148;14.068;2023-07-02T07:18:58;4.95;;;3.58;;
52318;SDS011;38258;51.148;14.068;2023-07-02T07:21:24;4.47;;;3.60;;
52318;SDS011;38258;51.148;14.068;2023-07-02T07:23:51;5.00;;;3.88;;
52318;SDS011;38258;51.148;14.068;2023-07-02T07:26:18;4.13;;;3.55;;
52318;SDS011;38258;51.148;14.068;2023-07-02T07:28:44;4.07;;;3.40;;
52318;SDS011;38258;51.148;14.068;2023-07-02T07:31:11;3.85;;;3.47;;
52318;SDS011;38258;51.148;14.068;2023-07-02T07:33:38;7.15;;;3.60;;
52318;SDS011;38258;51.148;14.068;2023-07-02T07:36:06;4.60;;;3.67;;
52318;SDS011;38258;51.148;14.068;2023-07-02T07:38:33;4.80;;;3.35;;
52318;SDS011;38258;51.148;14.068;2023-07-02T07:40:59;4.97;;;3.75;;
52318;SDS011;38258;51.148;14.068;2023-07-02T07:43:26;4.25;;;3.60;;
52318;SDS011;38258;51.148;14.068;2023-07-02T07:45:53;5.45;;;3.60;;
52318;SDS011;38258;51.148;14.068;2023-07-02T07:48:20;4.78;;;3.70;;
52318;SDS011;38258;51.148;14.068;2023-07-02T07:50:46;6.05;;;3.83;;
52318;SDS011;38258;51.148;14.068;2023-07-02T07:53:15;5.40;;;3.92;;
52318;SDS011;38258;51.148;14.068;2023-07-02T07:55:41;5.07;;;3.72;;
52318;SDS011;38258;51.148;14.068;2023-07-02T07:58:08;5.18;;;3.80;;
52318;SDS011;38258;51.148;14.068;2023-07-02T08:00:35;4.93;;;4.00;;
52318;SDS011;38258;51.148;14.068;2023-07-02T08:03:02;5.55;;;4.43;;
52318;SDS011;38258;51.148;14.068;2023-07-02T08:05:29;10.77;;;6.65;;
52318;SDS011;38258;51.148;14.068;2023-07-02T08:07:56;6.03;;;4.82;;
52318;SDS011;38258;51.148;14.068;2023-07-02T08:10:25;4.85;;;4.10;;
52318;SDS011;38258;51.148;14.068;2023-07-02T08:12:53;6.20;;;4.38;;
52318;SDS011;38258;51.148;14.068;2023-07-02T08:15:19;5.47;;;4.10;;
52318;SDS011;38258;51.148;14.068;2023-07-02T08:17:46;4.97;;;4.10;;
52318;SDS011;38258;51.148;14.068;2023-07-02T08:20:13;7.15;;;4.75;;
52318;SDS011;38258;51.148;14.068;2023-07-02T08:22:39;6.40;;;4.75;;
52318;SDS011;38258;51.148;14.068;2023-07-02T08:25:07;5.38;;;4.57;;
52318;SDS011;38258;51.148;14.068;2023-07-02T08:27:35;5.20;;;4.70;;
52318;SDS011;38258;51.148;14.068;2023-07-02T08:30:01;6.15;;;4.70;;
52318;SDS011;38258;51.148;14.068;2023-07-02T08:32:28;9.70;;;6.63;;
52318;SDS011;38258;51.148;14.068;2023-07-02T08:34:55;4.65;;;4.10;;
52318;SDS011;38258;51.148;14.068;2023-07-02T08:37:21;4.70;;;3.40;;
52318;SDS011;38258;51.148;14.068;2023-07-02T08:39:48;4.32;;;3.70;;
52318;SDS011;38258;51.148;14.068;2023-07-02T08:42:15;5.88;;;3.67;;
52318;SDS011;38258;51.148;14.068;2023-07-02T08:44:43;5.10;;;3.70;;
52318;SDS011;38258;51.148;14.068;2023-07-02T08:47:12;4.68;;;4.28;;
52318;SDS011;38258;51.148;14.068;2023-07-02T08:49:39;4.22;;;3.55;;
52318;SDS011;38258;51.148;14.068;2023-07-02T08:52:06;4.13;;;3.13;;
52318;SDS011;38258;51.148;14.068;2023-07-02T08:54:33;3.85;;;2.92;;
52318;SDS011;38258;51.148;14.068;2023-07-02T08:56:59;3.72;;;2.88;;
52318;SDS011;38258;51.148;14.068;2023-07-02T08:59:30;3.60;;;3.30;;
52318;SDS011;38258;51.148;14.068;2023-07-02T09:01:58;4.53;;;3.00;;
52318;SDS011;38258;51.148;14.068;2023-07-02T09:04:24;3.72;;;2.90;;
52318;SDS011;38258;51.148;14.068;2023-07-02T09:07:02;5.00;;;3.20;;
52318;SDS011;38258;51.148;14.068;2023-07-02T09:09:30;4.43;;;2.95;;
52318;SDS011;38258;51.148;14.068;2023-07-02T09:11:56;3.88;;;3.15;;
52318;SDS011;38258;51.148;14.068;2023-07-02T09:14:24;3.65;;;2.83;;
52318;SDS011;38258;51.148;14.068;2023-07-02T09:17:02;4.70;;;2.70;;
52318;SDS011;38258;51.148;14.068;2023-07-02T09:19:30;4.40;;;3.38;;
52318;SDS011;38258;51.148;14.068;2023-07-02T09:21:57;4.35;;;2.90;;
52318;SDS011;38258;51.148;14.068;2023-07-02T09:24:25;3.38;;;2.80;;
52318;SDS011;38258;51.148;14.068;2023-07-02T09:26:54;2.80;;;2.50;;
52318;SDS011;38258;51.148;14.068;2023-07-02T09:29:23;2.95;;;2.65;;
52318;SDS011;38258;51.148;14.068;2023-07-02T09:31:50;3.20;;;2.70;;
52318;SDS011;38258;51.148;14.068;2023-07-02T09:34:18;5.00;;;3.00;;
52318;SDS011;38258;51.148;14.068;2023-07-02T09:36:45;7.75;;;3.00;;
52318;SDS011;38258;51.148;14.068;2023-07-02T09:39:13;3.83;;;2.63;;
52318;SDS011;38258;51.148;14.068;2023-07-02T09:41:40;2.90;;;2.60;;
52318;SDS011;38258;51.148;14.068;2023-07-02T09:44:08;4.10;;;2.90;;
52318;SDS011;38258;51.148;14.068;2023-07-02T09:46:35;3.60;;;2.78;;
52318;SDS011;38258;51.148;14.068;2023-07-02T09:49:04;3.60;;;2.72;;
52318;SDS011;38258;51.148;14.068;2023-07-02T09:51:34;3.53;;;2.67;;
52318;SDS011;38258;51.148;14.068;2023-07-02T09:54:01;3.47;;;2.60;;
52318;SDS011;38258;51.148;14.068;2023-07-02T09:56:27;3.25;;;2.70;;
52318;SDS011;38258;51.148;14.068;2023-07-02T09:58:54;2.88;;;2.53;;
52318;SDS011;38258;51.148;14.068;2023-07-02T10:01:20;4.00;;;2.90;;
52318;SDS011;38258;51.148;14.068;2023-07-02T10:03:48;3.40;;;2.80;;
52318;SDS011;38258;51.148;14.068;2023-07-02T10:06:14;3.40;;;2.75;;
52318;SDS011;38258;51.148;14.068;2023-07-02T10:08:42;3.28;;;2.88;;
52318;SDS011;38258;51.148;14.068;2023-07-02T10:11:18;4.03;;;2.90;;
52318;SDS011;38258;51.148;14.068;2023-07-02T10:13:45;3.72;;;2.88;;
52318;SDS011;38258;51.148;14.068;2023-07-02T10:16:11;2.90;;;2.60;;
52318;SDS011;38258;51.148;14.068;2023-07-02T10:18:38;2.85;;;2.45;;
52318;SDS011;38258;51.148;14.068;2023-07-02T10:21:14;4.07;;;2.50;;
52318;SDS011;38258;51.148;14.068;2023-07-02T10:23:43;3.35;;;2.78;;
52318;SDS011;38258;51.148;14.068;2023-07-02T10:26:10;3.42;;;2.90;;
52318;SDS011;38258;51.148;14.068;2023-07-02T10:28:37;4.35;;;2.70;;
52318;SDS011;38258;51.148;14.068;2023-07-02T10:31:03;5.80;;;2.90;;
52318;SDS011;38258;51.148;14.068;2023-07-02T10:33:30;5.22;;;2.75;;
52318;SDS011;38258;51.148;14.068;2023-07-02T10:35:56;3.30;;;2.58;;
52318;SDS011;38258;51.148;14.068;2023-07-02T10:38:23;3.78;;;2.70;;
52318;SDS011;38258;51.148;14.068;2023-07-02T10:40:55;3.70;;;2.83;;
52318;SDS011;38258;51.148;14.068;2023-07-02T10:43:25;3.88;;;2.50;;
52318;SDS011;38258;51.148;14.068;2023-07-02T10:45:53;3.22;;;2.50;;
52318;SDS011;38258;51.148;14.068;2023-07-02T10:48:20;3.70;;;2.80;;
52318;SDS011;38258;51.148;14.068;2023-07-02T10:50:46;3.17;;;2.67;;
52318;SDS011;38258;51.148;14.068;2023-07-02T10:53:16;3.20;;;2.60;;
52318;SDS011;38258;51.148;14.068;2023-07-02T10:55:43;3.00;;;2.42;;
52318;SDS011;38258;51.148;14.068;2023-07-02T10:58:12;3.78;;;2.58;;
52318;SDS011;38258;51.148;14.068;2023-07-02T11:00:43;3.90;;;2.42;;
52318;SDS011;38258;51.148;14.068;2023-07-02T11:03:15;4.10;;;2.40;;
52318;SDS011;38258;51.148;14.068;2023-07-02T11:05:42;2.78;;;2.30;;
52318;SDS011;38258;51.148;14.068;2023-07-02T11:08:09;3.35;;;2.72;;
52318;SDS011;38258;51.148;14.068;2023-07-02T11:10:37;3.17;;;2.50;;
52318;SDS011;38258;51.148;14.068;2023-07-02T11:13:10;2.90;;;2.40;;
52318;SDS011;38258;51.148;14.068;2023-07-02T11:15:38;3.30;;;2.25;;
52318;SDS011;38258;51.148;14.068;2023-07-02T11:18:10;2.90;;;2.20;;
52318;SDS011;38258;51.148;14.068;2023-07-02T11:20:37;2.63;;;2.10;;
52318;SDS011;38258;51.148;14.068;2023-07-02T11:23:04;4.00;;;2.40;;
52318;SDS011;38258;51.148;14.068;2023-07-02T11:25:31;3.05;;;2.40;;
52318;SDS011;38258;51.148;14.068;2023-07-02T11:28:03;2.85;;;2.40;;
52318;SDS011;38258;51.148;14.068;2023-07-02T11:30:32;3.35;;;2.33;;
52318;SDS011;38258;51.148;14.068;2023-07-02T11:33:00;4.88;;;2.50;;
52318;SDS011;38258;51.148;14.068;2023-07-02T11:35:33;2.78;;;2.42;;
52318;SDS011;38258;51.148;14.068;2023-07-02T11:38:01;3.50;;;2.20;;
52318;SDS011;38258;51.148;14.068;2023-07-02T11:40:27;2.80;;;2.33;;
52318;SDS011;38258;51.148;14.068;2023-07-02T11:42:54;2.80;;;2.42;;
52318;SDS011;38258;51.148;14.068;2023-07-02T11:45:20;3.25;;;2.40;;
52318;SDS011;38258;51.148;14.068;2023-07-02T11:47:48;4.45;;;2.40;;
52318;SDS011;38258;51.148;14.068;2023-07-02T11:50:15;4.20;;;2.25;;
52318;SDS011;38258;51.148;14.068;2023-07-02T11:52:42;4.53;;;2.45;;
52318;SDS011;38258;51.148;14.068;2023-07-02T11:55:08;2.80;;;2.42;;
52318;SDS011;38258;51.148;14.068;2023-07-02T11:57:35;2.50;;;2.10;;
52318;SDS011;38258;51.148;14.068;2023-07-02T12:00:02;2.50;;;2.05;;
52318;SDS011;38258;51.148;14.068;2023-07-02T12:02:33;3.55;;;2.10;;
52318;SDS011;38258;51.148;14.068;2023-07-02T12:05:01;4.25;;;2.30;;
52318;SDS011;38258;51.148;14.068;2023-07-02T12:07:27;4.40;;;2.53;;
52318;SDS011;38258;51.148;14.068;2023-07-02T12:09:54;4.13;;;2.30;;
52318;SDS011;38258;51.148;14.068;2023-07-02T12:12:21;2.67;;;2.25;;
52318;SDS011;38258;51.148;14.068;2023-07-02T12:14:47;5.35;;;2.47;;
52318;SDS011;38258;51.148;14.068;2023-07-02T12:17:14;2.30;;;2.08;;
52318;SDS011;38258;51.148;14.068;2023-07-02T12:19:40;3.38;;;2.20;;
52318;SDS011;38258;51.148;14.068;2023-07-02T12:22:09;11.07;;;2.50;;
52318;SDS011;38258;51.148;14.068;2023-07-02T12:24:35;2.60;;;2.20;;
52318;SDS011;38258;51.148;14.068;2023-07-02T12:27:02;3.53;;;2.60;;
52318;SDS011;38258;51.148;14.068;2023-07-02T12:29:28;4.75;;;2.42;;
52318;SDS011;38258;51.148;14.068;2023-07-02T12:31:55;3.97;;;2.42;;
52318;SDS011;38258;51.148;14.068;2023-07-02T12:34:21;3.50;;;2.60;;
52318;SDS011;38258;51.148;14.068;2023-07-02T12:36:48;3.10;;;2.70;;
52318;SDS011;38258;51.148;14.068;2023-07-02T12:39:16;4.25;;;2.63;;
52318;SDS011;38258;51.148;14.068;2023-07-02T12:41:42;3.60;;;2.63;;
52318;SDS011;38258;51.148;14.068;2023-07-02T12:44:09;4.25;;;2.70;;
52318;SDS011;38258;51.148;14.068;2023-07-02T12:46:35;4.70;;;2.40;;
52318;SDS011;38258;51.148;14.068;2023-07-02T12:49:01;4.13;;;2.60;;
52318;SDS011;38258;51.148;14.068;2023-07-02T12:51:28;6.38;;;2.67;;
52318;SDS011;38258;51.148;14.068;2023-07-02T12:53:54;4.03;;;2.50;;
52318;SDS011;38258;51.148;14.068;2023-07-02T12:56:23;5.07;;;2.70;;
52318;SDS011;38258;51.148;14.068;2023-07-02T12:58:49;4.93;;;2.60;;
52318;SDS011;38258;51.148;14.068;2023-07-02T13:01:17;3.40;;;2.38;;
52318;SDS011;38258;51.148;14.068;2023-07-02T13:03:46;3.92;;;2.65;;
52318;SDS011;38258;51.148;14.068;2023-07-02T13:06:13;5.28;;;2.80;;
52318;SDS011;38258;51.148;14.068;2023-07-02T13:08:40;4.18;;;2.60;;
52318;SDS011;38258;51.148;14.068;2023-07-02T13:11:06;7.93;;;2.92;;
52318;SDS011;38258;51.148;14.068;2023-07-02T13:13:35;5.10;;;2.95;;
52318;SDS011;38258;51.148;14.068;2023-07-02T13:16:02;4.38;;;2.55;;
52318;SDS011;38258;51.148;14.068;2023-07-02T13:18:28;5.43;;;2.95;;
52318;SDS011;38258;51.148;14.068;2023-07-02T13:20:55;5.55;;;2.95;;
52318;SDS011;38258;51.148;14.068;2023-07-02T13:23:21;7.40;;;3.30;;
52318;SDS011;38258;51.148;14.068;2023-07-02T13:25:48;5.50;;;3.70;;
52318;SDS011;38258;51.148;14.068;2023-07-02T13:28:14;10.02;;;3.63;;
52318;SDS011;38258;51.148;14.068;2023-07-02T13:30:42;7.28;;;4.05;;
52318;SDS011;38258;51.148;14.068;2023-07-02T13:33:09;6.55;;;3.85;;
52318;SDS011;38258;51.148;14.068;2023-07-02T13:35:35;8.07;;;4.05;;
52318;SDS011;38258;51.148;14.068;2023-07-02T13:38:03;5.45;;;3.90;;
52318;SDS011;38258;51.148;14.068;2023-07-02T13:40:30;6.93;;;3.88;;
52318;SDS011;38258;51.148;14.068;2023-07-02T13:42:56;5.50;;;3.40;;
52318;SDS011;38258;51.148;14.068;2023-07-02T13:45:23;5.95;;;3.25;;
52318;SDS011;38258;51.148;14.068;2023-07-02T13:47:50;4.63;;;3.45;;
52318;SDS011;38258;51.148;14.068;2023-07-02T13:50:17;7.65;;;3.65;;
52318;SDS011;38258;51.148;14.068;2023-07-02T13:52:43;5.65;;;3.40;;
52318;SDS011;38258;51.148;14.068;2023-07-02T13:55:11;6.43;;;3.28;;
52318;SDS011;38258;51.148;14.068;2023-07-02T13:57:38;6.78;;;3.60;;
52318;SDS011;38258;51.148;14.068;2023-07-02T14:00:06;5.78;;;3.50;;
52318;SDS011;38258;51.148;14.068;2023-07-02T14:02:34;5.80;;;3.47;;
52318;SDS011;38258;51.148;14.068;2023-07-02T14:05:01;6.53;;;3.30;;
52318;SDS011;38258;51.148;14.068;2023-07-02T14:07:27;6.65;;;3.50;;
52318;SDS011;38258;51.148;14.068;2023-07-02T14:09:54;5.45;;;3.58;;
52318;SDS011;38258;51.148;14.068;2023-07-02T14:12:21;6.85;;;3.60;;
52318;SDS011;38258;51.148;14.068;2023-07-02T14:14:47;6.50;;;3.60;;
52318;SDS011;38258;51.148;14.068;2023-07-02T14:17:15;6.20;;;3.00;;
52318;SDS011;38258;51.148;14.068;2023-07-02T14:19:42;6.63;;;3.40;;
52318;SDS011;38258;51.148;14.068;2023-07-02T14:22:10;5.72;;;3.17;;
52318;SDS011;38258;51.148;14.068;2023-07-02T14:24:36;6.80;;;3.42;;
52318;SDS011;38258;51.148;14.068;2023-07-02T14:27:03;4.50;;;3.28;;
52318;SDS011;38258;51.148;14.068;2023-07-02T14:29:30;5.47;;;3.20;;
52318;SDS011;38258;51.148;14.068;2023-07-02T14:31:56;4.93;;;3.33;;
52318;SDS011;38258;51.148;14.068;2023-07-02T14:34:24;7.68;;;3.03;;